Time;durP1;ratioP1;P1;durP2;ratioP2;P2;SDS_P1;SDS_P2;PMS_P1;PMS_P2;Temp;Humidity;BMP_temperature;BMP_pressure;BME280_temperature;BME280_humidity;BME280_pressure;Samples;Min_cycle;Max_cycle;Signal;HPM_P1;HPM_P2
2022/08/09 00:01:08;;;;;;;;;;;;;;;18.55;52.08;102023.88;5058271;28;20381;-77
2022/08/09 00:03:33;;;;;;;;;;;;;;;18.54;52.21;102021.31;5062954;28;20024;-77
2022/08/09 00:05:58;;;;;;;;;;;;;;;18.47;52.57;102019.78;5063777;28;20015;-75
2022/08/09 00:08:23;;;;;;;;;;;;;;;18.54;51.80;102023.94;5063024;28;19929;-76
2022/08/09 00:10:49;;;;;;;;;;;;;;;18.52;51.95;102012.59;5040515;28;19917;-76
2022/08/09 00:13:15;;;;;;;;;;;;;;;18.50;51.62;102019.69;5052612;28;19991;-76
2022/08/09 00:15:40;;;;;;;;;;;;;;;18.48;51.99;102011.81;5059747;28;19923;-76
2022/08/09 00:18:05;;;;;;;;;;;;;;;18.48;51.96;102013.63;5069688;28;19920;-77
2022/08/09 00:20:30;;;;;;;;;;;;;;;18.46;52.60;102013.66;5061969;28;19928;-77
2022/08/09 00:22:56;;;;;;;;;;;;;;;18.40;53.27;102012.97;5063186;28;19931;-77
2022/08/09 00:25:21;;;;;;;;;;;;;;;18.39;52.88;102019.16;5060086;28;19916;-77
2022/08/09 00:27:46;;;;;;;;;;;;;;;18.39;52.44;102016.53;5050246;28;19927;-77
2022/08/09 00:30:12;;;;;;;;;;;;;;;18.40;52.25;102012.97;5058031;28;20589;-77
2022/08/09 00:32:38;;;;;;;;;;;;;;;18.40;52.77;102012.97;5060420;28;19916;-77
2022/08/09 00:35:04;;;;;;;;;;;;;;;18.35;52.34;102009.66;5065808;28;19964;-77
2022/08/09 00:37:29;;;;;;;;;;;;;;;18.32;52.92;102009.75;5055009;28;19925;-76
2022/08/09 00:39:54;;;;;;;;;;;;;;;18.34;52.87;102013.16;5066686;28;19956;-76
2022/08/09 00:42:20;;;;;;;;;;;;;;;18.30;53.32;102009.81;5056356;28;20385;-76
2022/08/09 00:44:45;;;;;;;;;;;;;;;18.31;52.77;102008.00;5067024;28;19920;-76
2022/08/09 00:47:10;;;;;;;;;;;;;;;18.27;53.60;102007.28;5052763;28;19967;-76
2022/08/09 00:49:36;;;;;;;;;;;;;;;18.31;52.74;102013.28;5066821;28;20012;-76
2022/08/09 00:52:01;;;;;;;;;;;;;;;18.30;52.96;102001.06;5059741;28;19974;-76
2022/08/09 00:54:27;;;;;;;;;;;;;;;18.26;53.71;102010.81;5062375;28;19924;-76
2022/08/09 00:56:52;;;;;;;;;;;;;;;18.24;53.66;102009.16;5061999;28;19920;-76
2022/08/09 00:59:17;;;;;;;;;;;;;;;18.25;52.63;102013.47;5066165;28;20459;-76
2022/08/09 01:01:43;;;;;;;;;;;;;;;18.22;53.19;102013.56;5060168;28;19968;-75
2022/08/09 01:04:27;;;;;;;;;;;;;;;18.20;52.92;102012.78;5066504;28;19973;-75
2022/08/09 01:07:13;;;;;;;;;;;;;;;18.21;52.73;102004.00;5063942;28;19925;-76
2022/08/09 01:09:44;;;;;;;;;;;;;;;18.23;52.45;102012.69;5064754;28;19916;-76
2022/08/09 01:12:22;;;;;;;;;;;;;;;18.18;53.06;102010.22;5059648;28;20004;-75
2022/08/09 01:14:51;;;;;;;;;;;;;;;18.20;52.65;102018.03;5059134;28;19921;-75
2022/08/09 01:17:26;;;;;;;;;;;;;;;18.24;52.84;102015.28;5042182;28;20002;-75
2022/08/09 01:19:57;;;;;;;;;;;;;;;18.19;52.86;102011.91;5055048;28;19920;-75
2022/08/09 01:22:42;;;;;;;;;;;;;;;18.16;52.74;102014.66;5058780;28;19970;-75
2022/08/09 01:25:07;;;;;;;;;;;;;;;18.23;52.51;102017.94;5056364;28;20003;-75
2022/08/09 01:27:34;;;;;;;;;;;;;;;18.21;52.95;102011.88;5063862;28;20411;-76
2022/08/09 01:30:02;;;;;;;;;;;;;;;18.16;52.88;102010.25;5058343;28;19921;-75
2022/08/09 01:32:38;;;;;;;;;;;;;;;18.16;53.32;102012.88;5061930;28;19921;-75
2022/08/09 01:35:23;;;;;;;;;;;;;;;18.20;53.06;102012.78;5044321;28;19966;-75
2022/08/09 01:37:50;;;;;;;;;;;;;;;18.17;53.09;102013.75;5057258;28;19925;-75
2022/08/09 01:40:18;;;;;;;;;;;;;;;18.11;53.79;102011.31;5055680;28;20454;-75
2022/08/09 01:42:43;;;;;;;;;;;;;;;18.14;53.33;102012.06;5058100;28;19937;-75
2022/08/09 01:45:09;;;;;;;;;;;;;;;18.12;53.71;102010.41;5060155;28;20008;-75
2022/08/09 01:47:36;;;;;;;;;;;;;;;18.12;53.57;102010.41;5067179;28;19916;-75
2022/08/09 01:50:03;;;;;;;;;;;;;;;18.06;53.13;102002.72;5054815;28;20384;-75
2022/08/09 01:52:29;;;;;;;;;;;;;;;18.09;53.33;102006.09;5062328;28;20092;-75
2022/08/09 01:54:58;;;;;;;;;;;;;;;18.03;54.12;102008.06;5050805;28;19925;-75
2022/08/09 01:57:27;;;;;;;;;;;;;;;18.03;53.67;102002.81;5065355;28;19920;-76
2022/08/09 01:59:54;;;;;;;;;;;;;;;18.04;53.80;102004.53;5053355;28;20483;-75
2022/08/09 02:02:24;;;;;;;;;;;;;;;18.07;53.00;102010.53;5058862;28;19977;-75
2022/08/09 02:04:49;;;;;;;;;;;;;;;18.06;53.46;102002.72;5056996;28;19921;-75
2022/08/09 02:07:16;;;;;;;;;;;;;;;18.03;53.62;102005.44;5059534;28;19935;-75
2022/08/09 02:09:43;;;;;;;;;;;;;;;18.04;53.34;102007.16;5063734;28;19924;-76
2022/08/09 02:12:10;;;;;;;;;;;;;;;18.02;53.70;102012.47;5045225;28;19924;-75
2022/08/09 02:14:36;;;;;;;;;;;;;;;17.98;54.04;102009.97;5066666;28;19920;-75
2022/08/09 02:17:02;;;;;;;;;;;;;;;17.92;54.38;102015.44;5062752;28;19920;-75
2022/08/09 02:19:27;;;;;;;;;;;;;;;17.98;53.77;102012.59;5061557;28;19938;-75
2022/08/09 02:21:56;;;;;;;;;;;;;;;17.91;53.88;102016.34;5064485;28;20012;-75
2022/08/09 02:24:27;;;;;;;;;;;;;;;17.92;54.38;102013.66;5054191;28;19940;-75
2022/08/09 02:26:54;;;;;;;;;;;;;;;17.95;53.63;102023.22;5056297;28;19924;-75
2022/08/09 02:29:24;;;;;;;;;;;;;;;17.90;54.18;102025.13;5060648;28;19920;-75
2022/08/09 02:31:53;;;;;;;;;;;;;;;17.85;54.21;102020.03;5060581;28;19951;-75
2022/08/09 02:34:27;;;;;;;;;;;;;;;17.90;53.54;102014.63;5059160;28;19924;-75
2022/08/09 02:36:54;;;;;;;;;;;;;;;17.86;54.31;102015.63;5055020;28;20035;-76
2022/08/09 02:39:39;;;;;;;;;;;;;;;17.87;54.10;102015.59;5059029;28;20006;-75
2022/08/09 02:42:11;;;;;;;;;;;;;;;17.87;54.12;102017.34;5066709;28;19974;-75
2022/08/09 02:44:39;;;;;;;;;;;;;;;17.84;54.58;102018.31;5051236;28;19960;-75
2022/08/09 02:47:12;;;;;;;;;;;;;;;17.85;54.74;102019.19;5060987;28;19924;-75
2022/08/09 02:49:39;;;;;;;;;;;;;;;17.87;54.15;102015.59;5060812;28;20654;-75
2022/08/09 02:52:06;;;;;;;;;;;;;;;17.84;54.74;102017.44;5061762;28;20404;-75
2022/08/09 02:54:32;;;;;;;;;;;;;;;17.85;54.54;102014.78;5059174;28;19924;-75
2022/08/09 02:57:01;;;;;;;;;;;;;;;17.78;54.79;102013.25;5062064;28;19970;-75
2022/08/09 02:59:26;;;;;;;;;;;;;;;17.80;54.20;102014.03;5064774;28;20019;-75
2022/08/09 03:01:52;;;;;;;;;;;;;;;17.77;54.75;102010.69;5054439;28;20015;-75
2022/08/09 03:04:18;;;;;;;;;;;;;;;17.81;54.36;102017.53;5065985;28;20482;-75
2022/08/09 03:06:44;;;;;;;;;;;;;;;17.78;54.57;102015.00;5063931;28;19990;-76
2022/08/09 03:09:11;;;;;;;;;;;;;;;17.72;54.91;102010.81;5062183;28;20335;-75
2022/08/09 03:11:36;;;;;;;;;;;;;;;17.73;54.58;102014.28;5044567;28;19920;-75
2022/08/09 03:14:03;;;;;;;;;;;;;;;17.74;54.80;102018.66;5059536;28;20015;-75
2022/08/09 03:16:28;;;;;;;;;;;;;;;17.68;55.01;102021.47;5064056;28;19932;-75
2022/08/09 03:18:54;;;;;;;;;;;;;;;17.67;55.13;102017.97;5059626;28;19920;-75
2022/08/09 03:21:21;;;;;;;;;;;;;;;17.64;55.15;102014.56;5063619;28;19931;-75
2022/08/09 03:23:46;;;;;;;;;;;;;;;17.71;54.79;102016.13;5040162;28;19966;-75
2022/08/09 03:26:13;;;;;;;;;;;;;;;17.69;55.40;102016.16;5064114;28;19928;-75
2022/08/09 03:28:39;;;;;;;;;;;;;;;17.69;54.96;102018.78;5058749;28;19968;-75
2022/08/09 03:31:05;;;;;;;;;;;;;;;17.65;55.16;102026.81;5061011;28;19974;-75
2022/08/09 03:33:31;;;;;;;;;;;;;;;17.65;55.47;102021.56;5056483;28;20270;-76
2022/08/09 03:35:56;;;;;;;;;;;;;;;17.64;55.46;102031.22;5066849;28;19923;-75
2022/08/09 03:38:22;;;;;;;;;;;;;;;17.64;55.37;102028.59;5068210;28;20011;-75
2022/08/09 03:40:47;;;;;;;;;;;;;;;17.64;55.42;102038.22;5049234;28;19928;-75
2022/08/09 03:43:12;;;;;;;;;;;;;;;17.62;55.65;102040.88;5063428;28;20072;-75
2022/08/09 03:45:38;;;;;;;;;;;;;;;17.61;55.34;102041.81;5053367;28;19925;-75
2022/08/09 03:48:03;;;;;;;;;;;;;;;17.58;55.96;102039.25;5073598;28;19920;-74
2022/08/09 03:50:29;;;;;;;;;;;;;;;17.63;55.66;102032.09;5042028;28;19924;-75
2022/08/09 03:52:56;;;;;;;;;;;;;;;17.62;55.74;102026.91;5060090;28;19920;-75
2022/08/09 03:55:21;;;;;;;;;;;;;;;17.57;55.69;102033.13;5061142;28;19948;-75
2022/08/09 03:57:49;;;;;;;;;;;;;;;17.52;56.49;102039.44;5065126;28;19983;-75
2022/08/09 04:00:15;;;;;;;;;;;;;;;17.49;56.44;102042.13;5056179;28;20015;-75
2022/08/09 04:02:42;;;;;;;;;;;;;;;17.43;56.82;102056.31;5056445;28;20028;-75
2022/08/09 04:05:08;;;;;;;;;;;;;;;17.40;56.91;102047.66;5054930;28;19974;-75
2022/08/09 04:07:33;;;;;;;;;;;;;;;17.40;56.51;102050.28;5062404;28;19925;-75
2022/08/09 04:09:58;;;;;;;;;;;;;;;17.42;56.50;102051.09;5059997;28;20381;-77
2022/08/09 04:12:34;;;;;;;;;;;;;;;17.45;56.37;102057.13;5063824;28;20363;-76
2022/08/09 04:15:00;;;;;;;;;;;;;;;17.41;56.28;102052.03;5054706;28;19958;-76
2022/08/09 04:17:25;;;;;;;;;;;;;;;17.50;56.63;102059.63;5068932;28;20008;-76
2022/08/09 04:19:51;;;;;;;;;;;;;;;17.45;56.52;102059.75;5062633;28;20015;-76
2022/08/09 04:22:17;;;;;;;;;;;;;;;17.48;56.24;102062.28;5054946;28;19931;-76
2022/08/09 04:24:42;;;;;;;;;;;;;;;17.53;56.63;102063.00;5060316;28;19924;-76
2022/08/09 04:27:08;;;;;;;;;;;;;;;17.51;56.24;102071.84;5066918;28;19920;-76
2022/08/09 04:29:33;;;;;;;;;;;;;;;17.47;56.71;102068.44;5057430;28;19924;-76
2022/08/09 04:31:59;;;;;;;;;;;;;;;17.45;56.84;102066.78;5055365;28;19943;-76
2022/08/09 04:34:24;;;;;;;;;;;;;;;17.49;56.60;102071.91;5052769;28;20065;-76
2022/08/09 04:36:49;;;;;;;;;;;;;;;17.44;56.64;102071.16;5062125;28;19916;-76
2022/08/09 04:39:15;;;;;;;;;;;;;;;17.48;56.81;102078.06;5057879;28;19920;-76
2022/08/09 04:41:40;;;;;;;;;;;;;;;17.54;56.39;102077.00;5058711;28;19932;-76
2022/08/09 04:44:10;;;;;;;;;;;;;;;17.50;56.06;102078.03;5058394;28;20005;-76
2022/08/09 04:46:36;;;;;;;;;;;;;;;17.50;56.61;102080.66;5061122;28;19920;-76
2022/08/09 04:49:02;;;;;;;;;;;;;;;17.48;56.60;102085.94;5058646;28;20327;-76
2022/08/09 04:51:27;;;;;;;;;;;;;;;17.51;56.32;102080.59;5039233;28;19989;-76
2022/08/09 04:53:52;;;;;;;;;;;;;;;17.48;56.26;102080.69;5064057;28;20003;-76
2022/08/09 04:56:17;;;;;;;;;;;;;;;17.46;56.93;102085.13;5055152;28;20032;-76
2022/08/09 04:58:43;;;;;;;;;;;;;;;17.51;56.81;102092.88;5060091;28;19959;-76
2022/08/09 05:01:08;;;;;;;;;;;;;;;17.50;57.10;102088.53;5052521;28;19921;-75
2022/08/09 05:03:33;;;;;;;;;;;;;;;17.51;57.34;102092.88;5058466;28;19992;-76
2022/08/09 05:05:59;;;;;;;;;;;;;;;17.51;57.17;102095.50;5056566;28;19942;-76
2022/08/09 05:08:24;;;;;;;;;;;;;;;17.46;57.65;102095.63;5046700;28;19928;-76
2022/08/09 05:10:49;;;;;;;;;;;;;;;17.49;57.05;102092.06;5059453;28;19920;-76
2022/08/09 05:13:15;;;;;;;;;;;;;;;17.54;56.78;102092.78;5056953;28;19927;-76
2022/08/09 05:15:41;;;;;;;;;;;;;;;17.51;57.52;102101.63;5060967;28;20000;-76
2022/08/09 05:18:06;;;;;;;;;;;;;;;17.54;57.18;102092.78;5060754;28;19970;-76
2022/08/09 05:20:32;;;;;;;;;;;;;;;17.56;57.51;102091.00;5058119;28;19921;-76
2022/08/09 05:22:58;;;;;;;;;;;;;;;17.59;57.12;102097.03;5036463;28;19979;-76
2022/08/09 05:25:23;;;;;;;;;;;;;;;17.60;57.51;102096.13;5064265;28;20399;-76
2022/08/09 05:27:49;;;;;;;;;;;;;;;17.56;57.25;102091.81;5059237;28;20006;-76
2022/08/09 05:30:16;;;;;;;;;;;;;;;17.54;58.07;102098.91;5057626;28;19917;-76
2022/08/09 05:32:41;;;;;;;;;;;;;;;17.55;58.75;102097.13;5058156;28;19996;-76
2022/08/09 05:35:07;;;;;;;;;;;;;;;17.49;59.75;102095.56;5053887;28;20396;-76
2022/08/09 05:37:32;;;;;;;;;;;;;;;17.48;59.89;102103.47;5059941;28;19924;-76
2022/08/09 05:39:58;;;;;;;;;;;;;;;17.41;60.81;102092.25;5062088;28;19921;-76
2022/08/09 05:42:23;;;;;;;;;;;;;;;17.50;60.17;102097.25;5079115;28;20326;-76
2022/08/09 05:44:49;;;;;;;;;;;;;;;17.48;60.22;102095.56;5054014;28;19928;-76
2022/08/09 05:47:15;;;;;;;;;;;;;;;17.45;60.70;102101.78;5060514;28;20019;-76
2022/08/09 05:49:40;;;;;;;;;;;;;;;17.45;60.98;102101.78;5057784;28;19921;-76
2022/08/09 05:52:06;;;;;;;;;;;;;;;17.46;61.34;102102.66;5057712;28;20305;-76
2022/08/09 05:54:31;;;;;;;;;;;;;;;17.52;60.23;102099.84;5060086;28;19917;-76
2022/08/09 05:56:56;;;;;;;;;;;;;;;17.51;60.67;102106.88;5063554;28;19921;-76
2022/08/09 05:59:21;;;;;;;;;;;;;;;17.48;60.15;102103.47;5060116;28;20723;-76
2022/08/09 06:01:47;;;;;;;;;;;;;;;17.49;60.70;102107.81;5054569;28;19959;-76
2022/08/09 06:04:12;;;;;;;;;;;;;;;17.47;61.03;102110.47;5058542;28;19931;-76
2022/08/09 06:06:37;;;;;;;;;;;;;;;17.47;60.68;102109.63;5059017;28;20385;-76
2022/08/09 06:09:03;;;;;;;;;;;;;;;17.48;59.67;102106.97;5058698;28;19924;-76
2022/08/09 06:11:28;;;;;;;;;;;;;;;17.52;59.76;102107.72;5058838;28;19936;-76
2022/08/09 06:13:53;;;;;;;;;;;;;;;17.54;60.00;102113.78;5056761;28;19924;-76
2022/08/09 06:16:19;;;;;;;;;;;;;;;17.55;59.15;102111.13;5056119;28;19921;-76
2022/08/09 06:18:44;;;;;;;;;;;;;;;17.61;59.06;102120.66;5061342;28;20349;-76
2022/08/09 06:21:09;;;;;;;;;;;;;;;17.58;60.26;102118.94;5065720;28;19920;-76
2022/08/09 06:23:35;;;;;;;;;;;;;;;17.61;59.42;102118.03;5062002;28;19947;-75
2022/08/09 06:26:00;;;;;;;;;;;;;;;17.63;59.50;102123.22;5056346;28;19929;-76
2022/08/09 06:28:25;;;;;;;;;;;;;;;17.68;59.59;102126.59;5061848;28;20289;-76
2022/08/09 06:30:51;;;;;;;;;;;;;;;17.66;59.38;102120.50;5068196;28;19920;-76
2022/08/09 06:33:16;;;;;;;;;;;;;;;17.58;58.79;102124.19;5066297;28;19995;-76
2022/08/09 06:35:41;;;;;;;;;;;;;;;17.69;58.95;102128.28;5063771;28;19917;-77
2022/08/09 06:38:07;;;;;;;;;;;;;;;17.70;58.94;102124.78;5059297;28;19928;-77
2022/08/09 06:40:32;;;;;;;;;;;;;;;17.71;58.57;102124.72;5063020;28;20663;-77
2022/08/09 06:42:59;;;;;;;;;;;;;;;17.75;58.36;102125.50;5064815;28;19920;-76
2022/08/09 06:45:25;;;;;;;;;;;;;;;17.80;58.48;102123.59;5065446;28;19913;-76
2022/08/09 06:47:50;;;;;;;;;;;;;;;17.82;58.36;102129.66;5061987;28;19916;-76
2022/08/09 06:50:15;;;;;;;;;;;;;;;17.79;58.23;102128.00;5060996;28;20275;-76
2022/08/09 06:52:44;;;;;;;;;;;;;;;17.77;58.76;102135.03;5064249;28;19920;-76
2022/08/09 06:55:13;;;;;;;;;;;;;;;17.82;58.29;102132.31;5069055;28;20368;-76
2022/08/09 06:57:39;;;;;;;;;;;;;;;17.76;59.19;102130.72;5053708;28;19916;-76
2022/08/09 07:00:05;;;;;;;;;;;;;;;17.81;58.90;102136.69;5068376;28;19924;-76
2022/08/09 07:02:30;;;;;;;;;;;;;;;17.83;58.67;102134.88;5059915;28;19920;-76
2022/08/09 07:04:55;;;;;;;;;;;;;;;17.87;57.56;102136.50;5069292;28;19917;-76
2022/08/09 07:07:20;;;;;;;;;;;;;;;17.84;58.81;102133.09;5077392;28;19916;-76
2022/08/09 07:09:46;;;;;;;;;;;;;;;17.83;59.70;102137.50;5072060;28;19925;-76
2022/08/09 07:12:11;;;;;;;;;;;;;;;17.89;58.34;102134.69;5063240;28;19920;-76
2022/08/09 07:14:37;;;;;;;;;;;;;;;17.92;57.62;102136.34;5041434;28;19917;-76
2022/08/09 07:17:02;;;;;;;;;;;;;;;17.97;57.38;102135.34;5065743;28;19920;-76
2022/08/09 07:19:28;;;;;;;;;;;;;;;17.94;57.78;102138.06;5063789;28;19964;-76
2022/08/09 07:21:53;;;;;;;;;;;;;;;17.87;57.82;102127.75;5060071;28;19925;-76
2022/08/09 07:24:18;;;;;;;;;;;;;;;17.95;57.87;102137.13;5065910;28;19932;-76
2022/08/09 07:26:44;;;;;;;;;;;;;;;17.97;57.81;102129.22;5032658;28;19917;-76
2022/08/09 07:29:09;;;;;;;;;;;;;;;17.94;58.81;102140.69;5058795;28;19920;-76
2022/08/09 07:31:34;;;;;;;;;;;;;;;17.96;59.24;102135.38;5065513;28;19923;-76
2022/08/09 07:34:00;;;;;;;;;;;;;;;18.00;58.26;102137.00;5058224;28;19927;-76
2022/08/09 07:36:25;;;;;;;;;;;;;;;18.04;57.60;102136.88;5063988;28;19920;-76
2022/08/09 07:38:50;;;;;;;;;;;;;;;18.11;55.44;102127.03;5058147;28;19920;-76
2022/08/09 07:41:16;;;;;;;;;;;;;;;18.09;56.48;102121.78;5063820;28;20011;-76
2022/08/09 07:43:41;;;;;;;;;;;;;;;18.15;56.55;102129.50;5061751;28;20668;-76
2022/08/09 07:46:10;;;;;;;;;;;;;;;18.12;55.31;102131.38;5057865;28;19927;-76
2022/08/09 07:48:35;;;;;;;;;;;;;;;18.11;55.46;102119.13;5047683;28;20274;-76
2022/08/09 07:51:01;;;;;;;;;;;;;;;18.13;55.38;102123.44;5064838;28;19927;-76
2022/08/09 07:53:26;;;;;;;;;;;;;;;18.15;55.34;102116.34;5064263;28;20346;-76
2022/08/09 07:55:51;;;;;;;;;;;;;;;18.18;54.54;102118.88;5054924;28;19924;-76
2022/08/09 07:58:17;;;;;;;;;;;;;;;18.21;54.61;102115.31;5057940;28;19927;-76
2022/08/09 08:00:42;;;;;;;;;;;;;;;18.21;54.17;102117.09;5066639;28;19916;-76
2022/08/09 08:03:07;;;;;;;;;;;;;;;18.19;54.39;102114.50;5056298;28;20560;-76
2022/08/09 08:05:35;;;;;;;;;;;;;;;18.25;54.12;102119.56;5058999;28;20134;-76
2022/08/09 08:08:02;;;;;;;;;;;;;;;18.22;55.08;102118.78;5062472;28;19929;-76
2022/08/09 08:10:27;;;;;;;;;;;;;;;18.23;54.88;102118.75;5066298;28;19916;-76
2022/08/09 08:12:52;;;;;;;;;;;;;;;18.30;54.62;102114.16;5062173;28;20392;-76
2022/08/09 08:15:18;;;;;;;;;;;;;;;18.29;54.90;102113.31;5058166;28;19920;-76
2022/08/09 08:17:50;;;;;;;;;;;;;;;18.35;54.01;102112.25;5064625;28;19925;-76
2022/08/09 08:20:15;;;;;;;;;;;;;;;18.34;54.63;102114.00;5055589;28;20670;-76
2022/08/09 08:22:41;;;;;;;;;;;;;;;18.38;53.35;102115.66;5063706;28;19928;-77
2022/08/09 08:25:06;;;;;;;;;;;;;;;18.38;53.16;102115.66;5055652;28;19985;-77
2022/08/09 08:27:32;;;;;;;;;;;;;;;18.38;53.08;102113.00;5064489;28;19946;-77
2022/08/09 08:29:57;;;;;;;;;;;;;;;18.40;53.46;102112.94;5066726;28;19920;-77
2022/08/09 08:32:23;;;;;;;;;;;;;;;18.41;52.96;102114.69;5061967;28;20388;-77
2022/08/09 08:34:48;;;;;;;;;;;;;;;18.43;52.93;102108.44;5060869;28;20004;-76
2022/08/09 08:37:13;;;;;;;;;;;;;;;18.47;53.11;102112.75;5056579;28;19928;-76
2022/08/09 08:39:39;;;;;;;;;;;;;;;18.50;53.04;102115.28;5058762;28;20368;-76
2022/08/09 08:42:04;;;;;;;;;;;;;;;18.51;53.12;102118.78;5066334;28;20326;-76
2022/08/09 08:44:33;;;;;;;;;;;;;;;18.52;52.73;102109.97;5060216;28;19928;-76
2022/08/09 08:46:58;;;;;;;;;;;;;;;18.53;52.33;102117.81;5070114;28;19947;-77
2022/08/09 08:49:24;;;;;;;;;;;;;;;18.57;52.38;102113.31;5067394;28;19963;-76
2022/08/09 08:51:50;;;;;;;;;;;;;;;18.57;52.96;102121.22;5048527;28;19928;-76
2022/08/09 08:54:15;;;;;;;;;;;;;;;18.59;52.52;102111.50;5058980;28;19923;-76
2022/08/09 08:56:42;;;;;;;;;;;;;;;18.59;52.45;102129.91;5062720;28;19921;-76
2022/08/09 08:59:11;;;;;;;;;;;;;;;18.58;52.80;102115.88;5050777;28;20396;-76
2022/08/09 09:01:37;;;;;;;;;;;;;;;18.60;52.95;102115.84;5057422;28;19917;-76
2022/08/09 09:04:03;;;;;;;;;;;;;;;18.59;52.35;102112.34;5057127;28;19920;-76
2022/08/09 09:06:34;;;;;;;;;;;;;;;18.58;52.86;102110.63;5059060;28;19927;-76
2022/08/09 09:09:00;;;;;;;;;;;;;;;18.63;52.71;102107.81;5061991;28;19921;-76
2022/08/09 09:11:27;;;;;;;;;;;;;;;18.70;51.34;102111.97;5051978;28;19956;-76
2022/08/09 09:13:54;;;;;;;;;;;;;;;18.78;51.14;102119.63;5053112;28;19921;-76
2022/08/09 09:16:19;;;;;;;;;;;;;;;18.81;50.63;102109.00;5065655;28;19931;-76
2022/08/09 09:18:45;;;;;;;;;;;;;;;18.76;51.30;102113.53;5061564;28;19916;-76
2022/08/09 09:21:10;;;;;;;;;;;;;;;18.80;51.39;102117.81;5054947;28;19929;-76
2022/08/09 09:23:41;;;;;;;;;;;;;;;18.85;50.84;102113.25;5062442;28;19967;-76
2022/08/09 09:26:06;;;;;;;;;;;;;;;18.88;50.25;102115.75;5061750;28;20377;-76
2022/08/09 09:28:33;;;;;;;;;;;;;;;18.86;50.85;102113.19;5062078;28;20373;-77
2022/08/09 09:31:00;;;;;;;;;;;;;;;18.80;50.91;102113.41;5059498;28;19927;-77
2022/08/09 09:33:33;;;;;;;;;;;;;;;18.84;50.92;102114.16;5064885;28;20007;-77
2022/08/09 09:36:00;;;;;;;;;;;;;;;18.85;50.96;102121.13;5056950;28;19921;-77
2022/08/09 09:38:41;;;;;;;;;;;;;;;18.93;50.92;102114.69;5058355;28;19920;-77
2022/08/09 09:41:07;;;;;;;;;;;;;;;19.03;49.87;102116.09;5055791;28;19920;-77
2022/08/09 09:43:32;;;;;;;;;;;;;;;18.97;49.73;102118.94;5057551;28;19936;-77
2022/08/09 09:46:01;;;;;;;;;;;;;;;19.14;48.96;102113.09;5063419;28;19927;-77
2022/08/09 09:48:26;;;;;;;;;;;;;;;19.06;49.60;102110.72;5057341;28;19999;-77
2022/08/09 09:50:53;;;;;;;;;;;;;;;19.06;49.29;102113.38;5066109;28;20035;-76
2022/08/09 09:53:24;;;;;;;;;;;;;;;18.91;50.20;102108.63;5061511;28;19920;-77
2022/08/09 09:55:50;;;;;;;;;;;;;;;19.17;48.91;102103.31;5065298;28;19927;-77
2022/08/09 09:58:15;;;;;;;;;;;;;;;19.12;49.26;102107.88;5063074;28;19921;-76
2022/08/09 10:00:45;;;;;;;;;;;;;;;19.14;49.71;102107.81;5061637;28;19960;-76
2022/08/09 10:03:10;;;;;;;;;;;;;;;18.99;50.29;102100.44;5055658;28;20381;-76
2022/08/09 10:05:35;;;;;;;;;;;;;;;19.02;50.16;102102.97;5060558;28;20053;-76
2022/08/09 10:08:04;;;;;;;;;;;;;;;19.01;49.45;102103.91;5062158;28;19936;-76
2022/08/09 10:10:30;;;;;;;;;;;;;;;19.08;49.31;102097.50;5066568;28;19927;-76
2022/08/09 10:12:55;;;;;;;;;;;;;;;19.24;48.51;102096.03;5072708;28;20014;-77
2022/08/09 10:15:20;;;;;;;;;;;;;;;19.12;48.80;102093.84;5049300;28;20311;-77
2022/08/09 10:17:48;;;;;;;;;;;;;;;19.42;48.08;102091.91;5069195;28;19917;-76
2022/08/09 10:20:16;;;;;;;;;;;;;;;19.33;50.89;102098.38;5053471;28;19932;-76
2022/08/09 10:22:42;;;;;;;;;;;;;;;19.21;48.68;102093.53;5059579;28;19925;-76
2022/08/09 10:25:07;;;;;;;;;;;;;;;19.06;52.08;102092.28;5059557;28;19927;-76
2022/08/09 10:27:33;;;;;;;;;;;;;;;19.08;49.33;102081.69;5056899;28;19920;-76
2022/08/09 10:30:00;;;;;;;;;;;;;;;19.25;49.05;102088.06;4991366;28;1903563;-76
2022/08/09 10:32:26;;;;;;;;;;;;;;;19.28;48.75;102083.63;5051311;28;19974;-76
2022/08/09 10:34:52;;;;;;;;;;;;;;;19.11;50.32;102082.44;5063288;28;20517;-76
2022/08/09 10:37:18;;;;;;;;;;;;;;;19.51;48.13;102087.16;5054922;28;19929;-76
2022/08/09 10:39:43;;;;;;;;;;;;;;;19.52;47.83;102078.31;5057238;28;19936;-76
2022/08/09 10:42:09;;;;;;;;;;;;;;;19.47;48.50;102079.41;5064073;28;19927;-76
2022/08/09 10:44:35;;;;;;;;;;;;;;;19.49;49.16;102077.59;5062058;28;19943;-76
2022/08/09 10:47:24;;;;;;;;;;;;;;;19.31;49.28;102083.56;5056866;28;20339;-76
2022/08/09 10:50:00;;;;;;;;;;;;;;;19.33;51.24;102072.03;5051769;28;19983;-76
2022/08/09 10:52:48;;;;;;;;;;;;;;;19.31;49.29;102068.59;5059524;28;20015;-76
2022/08/09 10:55:21;;;;;;;;;;;;;;;19.38;52.54;102064.81;5030960;28;20415;-76
2022/08/09 10:57:46;;;;;;;;;;;;;;;19.69;49.52;102060.13;5060044;28;19963;-76
2022/08/09 11:00:29;;;;;;;;;;;;;;;19.41;53.90;102069.09;5060665;28;19956;-76
2022/08/09 11:02:55;;;;;;;;;;;;;;;19.47;50.45;102064.47;5062620;28;19931;-76
2022/08/09 11:05:21;;;;;;;;;;;;;;;19.52;50.14;102067.78;5053504;28;20452;-76
2022/08/09 11:07:47;;;;;;;;;;;;;;;20.02;47.09;102063.22;5056537;28;19935;-76
2022/08/09 11:10:12;;;;;;;;;;;;;;;19.70;48.95;102058.31;5057628;28;19917;-76
2022/08/09 11:12:37;;;;;;;;;;;;;;;19.57;47.97;102062.34;5056005;28;19999;-76
2022/08/09 11:15:06;;;;;;;;;;;;;;;19.73;46.85;102051.16;5055760;28;20375;-76
2022/08/09 11:17:31;;;;;;;;;;;;;;;19.35;49.38;102057.03;5059331;28;19947;-76
2022/08/09 11:19:58;;;;;;;;;;;;;;;20.02;45.65;102057.94;5054243;28;20404;-77
2022/08/09 11:22:42;;;;;;;;;;;;;;;19.50;49.65;102055.59;5057408;28;19933;-77
2022/08/09 11:25:14;;;;;;;;;;;;;;;20.26;44.45;102042.94;5060627;28;20469;-76
2022/08/09 11:27:40;;;;;;;;;;;;;;;20.23;44.27;102033.34;5039690;28;19920;-76
2022/08/09 11:30:06;;;;;;;;;;;;;;;20.05;44.72;102035.84;5058358;28;19921;-76
2022/08/09 11:32:50;;;;;;;;;;;;;;;20.54;42.62;102050.53;5065016;28;19923;-76
2022/08/09 11:35:18;;;;;;;;;;;;;;;20.27;44.18;102044.63;5047563;28;19963;-76
2022/08/09 11:37:45;;;;;;;;;;;;;;;20.62;42.76;102043.19;5063487;28;19924;-77
2022/08/09 11:40:14;;;;;;;;;;;;;;;20.70;42.52;102047.22;5061337;28;19932;-77
2022/08/09 11:42:42;;;;;;;;;;;;;;;20.39;43.39;102043.25;5058036;28;20522;-77
2022/08/09 11:45:18;;;;;;;;;;;;;;;20.52;42.27;102033.91;5058456;28;20374;-77
2022/08/09 11:47:45;;;;;;;;;;;;;;;20.50;42.49;102043.69;5049579;28;20003;-77
2022/08/09 11:50:10;;;;;;;;;;;;;;;20.50;42.68;102039.25;5047764;28;19921;-77
2022/08/09 11:52:55;;;;;;;;;;;;;;;20.45;42.86;102035.94;5062325;28;19917;-77
2022/08/09 11:55:30;;;;;;;;;;;;;;;20.71;41.37;102021.63;5058966;28;20075;-77
2022/08/09 11:57:56;;;;;;;;;;;;;;;20.50;44.45;102027.84;5043498;28;19931;-77
2022/08/09 12:00:22;;;;;;;;;;;;;;;19.85;51.08;102026.09;5063082;28;19925;-77
2022/08/09 12:02:47;;;;;;;;;;;;;;;19.56;50.35;102027.22;5066490;28;20073;-77
2022/08/09 12:05:13;;;;;;;;;;;;;;;19.40;55.99;102023.44;5061641;28;19956;-77
2022/08/09 12:07:39;;;;;;;;;;;;;;;19.59;52.22;102019.19;5054267;28;20320;-77
2022/08/09 12:10:05;;;;;;;;;;;;;;;20.33;42.73;102010.06;5063077;28;20419;-76
2022/08/09 12:12:48;;;;;;;;;;;;;;;19.79;54.16;102021.03;5061996;28;20496;-77
2022/08/09 12:15:26;;;;;;;;;;;;;;;19.79;45.39;102013.13;5062261;28;19929;-76
2022/08/09 12:17:52;;;;;;;;;;;;;;;19.54;50.77;102012.41;5061158;28;19981;-76
2022/08/09 12:20:18;;;;;;;;;;;;;;;19.37;54.73;102020.09;5060341;28;20003;-76
2022/08/09 12:22:44;;;;;;;;;;;;;;;20.35;42.97;102005.59;5055346;28;19929;-75
2022/08/09 12:25:13;;;;;;;;;;;;;;;20.25;43.51;101998.97;5055587;28;20015;-76
2022/08/09 12:27:38;;;;;;;;;;;;;;;20.56;43.20;101995.91;5058506;28;19917;-76
2022/08/09 12:30:06;;;;;;;;;;;;;;;20.19;46.37;102000.09;5059854;28;19920;-76
2022/08/09 12:32:31;;;;;;;;;;;;;;;20.15;45.76;102000.28;5070094;28;19916;-76
2022/08/09 12:35:00;;;;;;;;;;;;;;;19.76;48.53;102002.72;5065514;28;19929;-76